Terminal Aerodrome Forecast
Issued by NWS Brownsville, TX

Home | Current Version | Previous Version | Text Only | Print | Product List | Glossary On
Versions: 1 2 3 4 5 6 7 8 9 10 11 12 13 14
000
FTUS44 KBRO 252300
TAFMFE
TAF
KMFE 252331Z 2600/2624 15015G22KT P6SM BKN200
     FM260200 15010KT P6SM BKN050
     FM261100 15008KT P6SM BKN035
     FM261600 16015G20KT P6SM SCT035 SCT050 BKN200
     FM262300 15015KT P6SM SCT050 BKN200=

USA.gov is the U.S. government's official web portal to all federal, state and local government web resources and services.